Terminal Aerodrome Forecast
Issued by NWS Northern Indiana

Home | Current Version | Previous Version | Text Only | Print | Product List | Glossary Off
Versions: 1 2 3 4 5 6 7 8 9 10 11 12 13 14 15

000
FTUS43 KIWX 021234 RRA
TAFFWA
TAF
KFWA 021234Z 0213/0312 22008KT P6SM SCT150
     FM021500 24012KT P6SM SCT150
     FM021900 23018G26KT P6SM SCT250
     FM030000 21012KT P6SM BKN200
     FM030400 22014KT P6SM VCTS BKN050CB=

USA.gov is the U.S. government's official web portal to all federal, state and local government web resources and services.